KFYV/FYV METAR and TAF weather

Enter ICAO airport designator
Station Type Date Time Source
KFYV METAR 2019/02/22 21:58 UTC NOAA

KFYV 222158Z 00000KT 3SM BR BKN004 OVC009 07/07 A3002 RMK AO2 CIG 003V007 T00720067


Station Type Date Time Source
KFYV Decoded METAR 2019/02/22 21:58 UTC NOAA

FAYETTEVILLE DRAKE FIELD, AR, United States (KFYV) 36-00N 94-10W 379M
Feb 22, 2019 - 04:58 PM EST / 2019.02.22 2158 UTC
Wind: Calm:0
Visibility: 3 mile(s):0
Sky conditions: overcast
Weather: mist
Temperature: 45.0 F (7.2 C)
Dew Point: 44.1 F (6.7 C)
Relative Humidity: 96%
Pressure (altimeter): 30.02 in. Hg (1016 hPa)
ob: KFYV 222158Z 00000KT 3SM BR BKN004 OVC009 07/07 A3002 RMK AO2 CIG 003V007 T00720067
cycle: 22

Station Type Date Time Source
KFYV TAF 2019/02/22 18:24 UTC NOAA

TAF KFYV 221723Z 2218/2318 13008KT P6SM OVC007
TEMPO 2218/2222 2SM -DZ BR
FM230100 15008KT 4SM BR VCSH OVC003 PROB30 2311/2315 4SM -TSRA OVC007CB
FM231500 18010KT P6SM VCSH OVC004


Example: see airport list